sensor_id;sensor_type;location;lat;lon;timestamp;P1;durP1;ratioP1;P2;durP2;ratioP2
47429;SDS011;33181;49.246;7.372;2023-05-15T00:00:51;5.13;;;3.40;;
47429;SDS011;33181;49.246;7.372;2023-05-15T00:03:18;4.07;;;3.53;;
47429;SDS011;33181;49.246;7.372;2023-05-15T00:05:45;5.23;;;3.40;;
47429;SDS011;33181;49.246;7.372;2023-05-15T00:08:11;4.17;;;3.30;;
47429;SDS011;33181;49.246;7.372;2023-05-15T00:10:36;3.97;;;3.17;;
47429;SDS011;33181;49.246;7.372;2023-05-15T00:13:02;4.10;;;3.70;;
47429;SDS011;33181;49.246;7.372;2023-05-15T00:15:28;3.97;;;3.50;;
47429;SDS011;33181;49.246;7.372;2023-05-15T00:17:54;5.00;;;3.70;;
47429;SDS011;33181;49.246;7.372;2023-05-15T00:20:22;4.10;;;3.27;;
47429;SDS011;33181;49.246;7.372;2023-05-15T00:22:48;3.30;;;3.00;;
47429;SDS011;33181;49.246;7.372;2023-05-15T00:25:14;7.70;;;4.30;;
47429;SDS011;33181;49.246;7.372;2023-05-15T00:27:43;4.27;;;3.73;;
47429;SDS011;33181;49.246;7.372;2023-05-15T00:30:10;4.10;;;3.30;;
47429;SDS011;33181;49.246;7.372;2023-05-15T00:32:37;3.83;;;3.40;;
47429;SDS011;33181;49.246;7.372;2023-05-15T00:35:04;4.50;;;3.43;;
47429;SDS011;33181;49.246;7.372;2023-05-15T00:37:30;4.93;;;4.20;;
47429;SDS011;33181;49.246;7.372;2023-05-15T00:39:56;3.73;;;3.40;;
47429;SDS011;33181;49.246;7.372;2023-05-15T00:42:24;4.73;;;3.67;;
47429;SDS011;33181;49.246;7.372;2023-05-15T00:44:52;4.20;;;3.80;;
47429;SDS011;33181;49.246;7.372;2023-05-15T00:47:20;6.13;;;3.77;;
47429;SDS011;33181;49.246;7.372;2023-05-15T00:49:48;5.20;;;4.43;;
47429;SDS011;33181;49.246;7.372;2023-05-15T00:52:15;4.33;;;3.70;;
47429;SDS011;33181;49.246;7.372;2023-05-15T00:54:41;4.40;;;3.80;;
47429;SDS011;33181;49.246;7.372;2023-05-15T00:57:07;4.50;;;3.77;;
47429;SDS011;33181;49.246;7.372;2023-05-15T00:59:34;4.80;;;4.30;;
47429;SDS011;33181;49.246;7.372;2023-05-15T01:02:04;5.37;;;4.10;;
47429;SDS011;33181;49.246;7.372;2023-05-15T01:04:30;5.23;;;4.30;;
47429;SDS011;33181;49.246;7.372;2023-05-15T01:06:56;5.70;;;4.17;;
47429;SDS011;33181;49.246;7.372;2023-05-15T01:09:25;5.83;;;4.33;;
47429;SDS011;33181;49.246;7.372;2023-05-15T01:11:55;5.20;;;4.57;;
47429;SDS011;33181;49.246;7.372;2023-05-15T01:14:23;6.00;;;4.50;;
47429;SDS011;33181;49.246;7.372;2023-05-15T01:16:48;5.27;;;4.77;;
47429;SDS011;33181;49.246;7.372;2023-05-15T01:19:15;6.43;;;5.20;;
47429;SDS011;33181;49.246;7.372;2023-05-15T01:21:47;7.13;;;5.07;;
47429;SDS011;33181;49.246;7.372;2023-05-15T01:27:44;5.13;;;4.53;;
47429;SDS011;33181;49.246;7.372;2023-05-15T01:33:02;6.90;;;5.43;;
47429;SDS011;33181;49.246;7.372;2023-05-15T01:36:42;6.30;;;5.00;;
47429;SDS011;33181;49.246;7.372;2023-05-15T01:38:52;7.10;;;4.80;;
47429;SDS011;33181;49.246;7.372;2023-05-15T01:41:30;5.70;;;4.70;;
47429;SDS011;33181;49.246;7.372;2023-05-15T01:44:02;5.20;;;4.47;;
47429;SDS011;33181;49.246;7.372;2023-05-15T01:46:40;6.00;;;4.43;;
47429;SDS011;33181;49.246;7.372;2023-05-15T01:49:10;5.13;;;4.00;;
47429;SDS011;33181;49.246;7.372;2023-05-15T01:51:39;8.33;;;4.70;;
47429;SDS011;33181;49.246;7.372;2023-05-15T01:54:13;5.50;;;4.40;;
47429;SDS011;33181;49.246;7.372;2023-05-15T01:56:39;5.30;;;4.50;;
47429;SDS011;33181;49.246;7.372;2023-05-15T01:59:09;5.60;;;4.77;;
47429;SDS011;33181;49.246;7.372;2023-05-15T02:01:39;5.43;;;4.33;;
47429;SDS011;33181;49.246;7.372;2023-05-15T02:04:06;5.00;;;4.30;;
47429;SDS011;33181;49.246;7.372;2023-05-15T02:06:33;5.57;;;4.33;;
47429;SDS011;33181;49.246;7.372;2023-05-15T02:09:00;5.63;;;3.90;;
47429;SDS011;33181;49.246;7.372;2023-05-15T02:11:27;5.00;;;4.07;;
47429;SDS011;33181;49.246;7.372;2023-05-15T02:13:56;4.53;;;3.93;;
47429;SDS011;33181;49.246;7.372;2023-05-15T02:16:25;5.40;;;4.47;;
47429;SDS011;33181;49.246;7.372;2023-05-15T02:18:51;5.30;;;4.27;;
47429;SDS011;33181;49.246;7.372;2023-05-15T02:21:19;5.83;;;4.13;;
47429;SDS011;33181;49.246;7.372;2023-05-15T02:23:44;4.27;;;3.70;;
47429;SDS011;33181;49.246;7.372;2023-05-15T02:29:23;5.43;;;4.40;;
47429;SDS011;33181;49.246;7.372;2023-05-15T02:35:18;5.90;;;4.30;;
47429;SDS011;33181;49.246;7.372;2023-05-15T02:38:08;4.80;;;3.77;;
47429;SDS011;33181;49.246;7.372;2023-05-15T02:40:41;4.57;;;3.70;;
47429;SDS011;33181;49.246;7.372;2023-05-15T02:43:10;4.83;;;4.10;;
47429;SDS011;33181;49.246;7.372;2023-05-15T02:45:38;4.17;;;3.77;;
47429;SDS011;33181;49.246;7.372;2023-05-15T02:48:05;5.90;;;3.70;;
47429;SDS011;33181;49.246;7.372;2023-05-15T02:50:31;4.27;;;3.80;;
47429;SDS011;33181;49.246;7.372;2023-05-15T02:53:01;5.90;;;4.13;;
47429;SDS011;33181;49.246;7.372;2023-05-15T02:55:32;4.20;;;3.80;;
47429;SDS011;33181;49.246;7.372;2023-05-15T02:57:58;4.70;;;3.90;;
47429;SDS011;33181;49.246;7.372;2023-05-15T03:00:24;4.93;;;3.70;;
47429;SDS011;33181;49.246;7.372;2023-05-15T03:02:50;5.37;;;3.90;;
47429;SDS011;33181;49.246;7.372;2023-05-15T03:05:17;5.03;;;4.40;;
47429;SDS011;33181;49.246;7.372;2023-05-15T03:07:45;6.43;;;4.23;;
47429;SDS011;33181;49.246;7.372;2023-05-15T03:10:11;5.40;;;3.90;;
47429;SDS011;33181;49.246;7.372;2023-05-15T03:12:37;4.63;;;3.90;;
47429;SDS011;33181;49.246;7.372;2023-05-15T03:15:04;4.97;;;4.33;;
47429;SDS011;33181;49.246;7.372;2023-05-15T03:17:31;4.93;;;4.07;;
47429;SDS011;33181;49.246;7.372;2023-05-15T03:19:56;4.40;;;3.87;;
47429;SDS011;33181;49.246;7.372;2023-05-15T03:22:22;5.30;;;4.57;;
47429;SDS011;33181;49.246;7.372;2023-05-15T03:24:48;5.63;;;4.57;;
47429;SDS011;33181;49.246;7.372;2023-05-15T03:27:14;6.27;;;4.40;;
47429;SDS011;33181;49.246;7.372;2023-05-15T03:29:40;8.63;;;5.20;;
47429;SDS011;33181;49.246;7.372;2023-05-15T03:32:07;6.40;;;4.70;;
47429;SDS011;33181;49.246;7.372;2023-05-15T03:34:33;5.90;;;5.17;;
47429;SDS011;33181;49.246;7.372;2023-05-15T03:36:59;5.97;;;5.00;;
47429;SDS011;33181;49.246;7.372;2023-05-15T03:39:25;5.90;;;4.90;;
47429;SDS011;33181;49.246;7.372;2023-05-15T03:41:50;11.60;;;5.10;;
47429;SDS011;33181;49.246;7.372;2023-05-15T03:44:16;6.00;;;4.60;;
47429;SDS011;33181;49.246;7.372;2023-05-15T03:46:42;4.93;;;4.40;;
47429;SDS011;33181;49.246;7.372;2023-05-15T03:49:08;6.40;;;4.90;;
47429;SDS011;33181;49.246;7.372;2023-05-15T03:51:36;6.27;;;4.80;;
47429;SDS011;33181;49.246;7.372;2023-05-15T03:54:02;10.47;;;4.57;;
47429;SDS011;33181;49.246;7.372;2023-05-15T03:56:31;5.90;;;4.43;;
47429;SDS011;33181;49.246;7.372;2023-05-15T03:58:57;6.10;;;4.73;;
47429;SDS011;33181;49.246;7.372;2023-05-15T04:01:23;5.33;;;4.50;;
47429;SDS011;33181;49.246;7.372;2023-05-15T04:03:49;5.90;;;4.90;;
47429;SDS011;33181;49.246;7.372;2023-05-15T04:06:15;5.07;;;4.10;;
47429;SDS011;33181;49.246;7.372;2023-05-15T04:08:40;5.23;;;4.73;;
47429;SDS011;33181;49.246;7.372;2023-05-15T04:11:06;5.40;;;4.50;;
47429;SDS011;33181;49.246;7.372;2023-05-15T04:13:33;5.60;;;4.50;;
47429;SDS011;33181;49.246;7.372;2023-05-15T04:15:59;6.60;;;4.73;;
47429;SDS011;33181;49.246;7.372;2023-05-15T04:18:28;16.43;;;4.70;;
47429;SDS011;33181;49.246;7.372;2023-05-15T04:20:53;6.57;;;5.27;;
47429;SDS011;33181;49.246;7.372;2023-05-15T04:23:19;6.10;;;4.80;;
47429;SDS011;33181;49.246;7.372;2023-05-15T04:25:45;5.50;;;4.63;;
47429;SDS011;33181;49.246;7.372;2023-05-15T04:28:12;5.40;;;4.73;;
47429;SDS011;33181;49.246;7.372;2023-05-15T04:30:39;6.97;;;4.57;;
47429;SDS011;33181;49.246;7.372;2023-05-15T04:33:05;6.90;;;4.40;;
47429;SDS011;33181;49.246;7.372;2023-05-15T04:35:31;7.73;;;4.60;;
47429;SDS011;33181;49.246;7.372;2023-05-15T04:37:57;6.40;;;5.00;;
47429;SDS011;33181;49.246;7.372;2023-05-15T04:40:23;7.50;;;5.10;;
47429;SDS011;33181;49.246;7.372;2023-05-15T04:42:49;6.60;;;4.80;;
47429;SDS011;33181;49.246;7.372;2023-05-15T04:45:15;5.30;;;4.63;;
47429;SDS011;33181;49.246;7.372;2023-05-15T04:47:41;6.10;;;5.03;;
47429;SDS011;33181;49.246;7.372;2023-05-15T04:50:07;8.30;;;5.13;;
47429;SDS011;33181;49.246;7.372;2023-05-15T04:52:33;6.43;;;4.43;;
47429;SDS011;33181;49.246;7.372;2023-05-15T04:54:59;7.47;;;5.00;;
47429;SDS011;33181;49.246;7.372;2023-05-15T04:57:25;6.53;;;4.90;;
47429;SDS011;33181;49.246;7.372;2023-05-15T04:59:51;5.70;;;4.97;;
47429;SDS011;33181;49.246;7.372;2023-05-15T05:02:20;5.63;;;4.70;;
47429;SDS011;33181;49.246;7.372;2023-05-15T05:04:46;7.60;;;4.80;;
47429;SDS011;33181;49.246;7.372;2023-05-15T05:07:15;7.00;;;4.77;;
47429;SDS011;33181;49.246;7.372;2023-05-15T05:09:41;7.73;;;5.00;;
47429;SDS011;33181;49.246;7.372;2023-05-15T05:12:07;5.93;;;4.90;;
47429;SDS011;33181;49.246;7.372;2023-05-15T05:14:33;6.40;;;5.00;;
47429;SDS011;33181;49.246;7.372;2023-05-15T05:17:00;7.97;;;4.90;;
47429;SDS011;33181;49.246;7.372;2023-05-15T05:19:25;8.10;;;5.00;;
47429;SDS011;33181;49.246;7.372;2023-05-15T05:21:54;8.30;;;4.83;;
47429;SDS011;33181;49.246;7.372;2023-05-15T05:24:25;5.57;;;4.70;;
47429;SDS011;33181;49.246;7.372;2023-05-15T05:26:51;7.40;;;5.37;;
47429;SDS011;33181;49.246;7.372;2023-05-15T05:29:17;10.63;;;6.10;;
47429;SDS011;33181;49.246;7.372;2023-05-15T05:31:42;6.97;;;5.73;;
47429;SDS011;33181;49.246;7.372;2023-05-15T05:34:11;8.03;;;5.80;;
47429;SDS011;33181;49.246;7.372;2023-05-15T05:36:37;8.20;;;5.97;;
47429;SDS011;33181;49.246;7.372;2023-05-15T05:39:02;7.00;;;5.87;;
47429;SDS011;33181;49.246;7.372;2023-05-15T05:41:28;6.30;;;5.70;;
47429;SDS011;33181;49.246;7.372;2023-05-15T05:43:54;10.70;;;6.00;;
47429;SDS011;33181;49.246;7.372;2023-05-15T05:46:20;7.97;;;6.40;;
47429;SDS011;33181;49.246;7.372;2023-05-15T05:48:46;9.20;;;5.80;;
47429;SDS011;33181;49.246;7.372;2023-05-15T05:51:12;5.70;;;5.03;;
47429;SDS011;33181;49.246;7.372;2023-05-15T05:53:37;6.17;;;5.17;;
47429;SDS011;33181;49.246;7.372;2023-05-15T05:56:03;7.63;;;5.63;;
47429;SDS011;33181;49.246;7.372;2023-05-15T05:58:29;7.47;;;5.73;;
47429;SDS011;33181;49.246;7.372;2023-05-15T06:00:55;9.70;;;8.27;;
47429;SDS011;33181;49.246;7.372;2023-05-15T06:03:22;8.43;;;7.30;;
47429;SDS011;33181;49.246;7.372;2023-05-15T06:05:49;7.60;;;6.37;;
47429;SDS011;33181;49.246;7.372;2023-05-15T06:08:15;7.67;;;6.53;;
47429;SDS011;33181;49.246;7.372;2023-05-15T06:10:41;7.50;;;6.70;;
47429;SDS011;33181;49.246;7.372;2023-05-15T06:13:06;8.43;;;6.23;;
47429;SDS011;33181;49.246;7.372;2023-05-15T06:15:32;7.53;;;5.53;;
47429;SDS011;33181;49.246;7.372;2023-05-15T06:17:58;8.60;;;6.07;;
47429;SDS011;33181;49.246;7.372;2023-05-15T06:20:24;7.83;;;5.67;;
47429;SDS011;33181;49.246;7.372;2023-05-15T06:22:51;6.83;;;6.00;;
47429;SDS011;33181;49.246;7.372;2023-05-15T06:25:16;7.27;;;6.50;;
47429;SDS011;33181;49.246;7.372;2023-05-15T06:27:43;8.43;;;5.93;;
47429;SDS011;33181;49.246;7.372;2023-05-15T06:30:09;8.43;;;6.20;;
47429;SDS011;33181;49.246;7.372;2023-05-15T06:32:36;7.77;;;5.43;;
47429;SDS011;33181;49.246;7.372;2023-05-15T06:35:02;7.00;;;6.30;;
47429;SDS011;33181;49.246;7.372;2023-05-15T06:37:28;6.53;;;5.83;;
47429;SDS011;33181;49.246;7.372;2023-05-15T06:39:54;6.90;;;6.20;;
47429;SDS011;33181;49.246;7.372;2023-05-15T06:42:20;6.20;;;5.53;;
47429;SDS011;33181;49.246;7.372;2023-05-15T06:44:47;6.43;;;5.73;;
47429;SDS011;33181;49.246;7.372;2023-05-15T06:47:13;6.53;;;5.30;;
47429;SDS011;33181;49.246;7.372;2023-05-15T06:49:39;7.93;;;5.73;;
47429;SDS011;33181;49.246;7.372;2023-05-15T06:52:05;5.40;;;4.90;;
47429;SDS011;33181;49.246;7.372;2023-05-15T06:54:31;6.03;;;5.40;;
47429;SDS011;33181;49.246;7.372;2023-05-15T06:56:57;6.77;;;5.10;;
47429;SDS011;33181;49.246;7.372;2023-05-15T06:59:23;5.70;;;5.13;;
47429;SDS011;33181;49.246;7.372;2023-05-15T07:01:50;5.63;;;5.13;;
47429;SDS011;33181;49.246;7.372;2023-05-15T07:04:15;9.23;;;5.50;;
47429;SDS011;33181;49.246;7.372;2023-05-15T07:06:41;6.20;;;5.60;;
47429;SDS011;33181;49.246;7.372;2023-05-15T07:09:07;5.87;;;5.00;;
47429;SDS011;33181;49.246;7.372;2023-05-15T07:11:34;6.70;;;4.90;;
47429;SDS011;33181;49.246;7.372;2023-05-15T07:14:02;7.97;;;5.10;;
47429;SDS011;33181;49.246;7.372;2023-05-15T07:16:30;5.73;;;4.13;;
47429;SDS011;33181;49.246;7.372;2023-05-15T07:18:56;5.00;;;4.50;;
47429;SDS011;33181;49.246;7.372;2023-05-15T07:21:24;7.13;;;4.40;;
47429;SDS011;33181;49.246;7.372;2023-05-15T07:23:53;11.13;;;6.03;;
47429;SDS011;33181;49.246;7.372;2023-05-15T07:26:19;7.10;;;4.20;;
47429;SDS011;33181;49.246;7.372;2023-05-15T07:28:45;7.20;;;4.43;;
47429;SDS011;33181;49.246;7.372;2023-05-15T07:31:11;5.67;;;4.83;;
47429;SDS011;33181;49.246;7.372;2023-05-15T07:33:37;4.73;;;4.27;;
47429;SDS011;33181;49.246;7.372;2023-05-15T07:36:03;5.10;;;4.60;;
47429;SDS011;33181;49.246;7.372;2023-05-15T07:38:32;6.07;;;4.90;;
47429;SDS011;33181;49.246;7.372;2023-05-15T07:40:58;8.00;;;4.80;;
47429;SDS011;33181;49.246;7.372;2023-05-15T07:43:24;5.60;;;4.97;;
47429;SDS011;33181;49.246;7.372;2023-05-15T07:45:52;10.87;;;5.20;;
47429;SDS011;33181;49.246;7.372;2023-05-15T07:48:38;6.23;;;4.80;;
47429;SDS011;33181;49.246;7.372;2023-05-15T07:51:03;6.10;;;4.80;;
47429;SDS011;33181;49.246;7.372;2023-05-15T07:53:34;5.40;;;4.20;;
47429;SDS011;33181;49.246;7.372;2023-05-15T07:56:34;7.13;;;5.00;;
47429;SDS011;33181;49.246;7.372;2023-05-15T08:00:05;7.50;;;4.40;;
47429;SDS011;33181;49.246;7.372;2023-05-15T08:02:36;6.37;;;4.90;;
47429;SDS011;33181;49.246;7.372;2023-05-15T08:05:02;4.57;;;4.07;;
47429;SDS011;33181;49.246;7.372;2023-05-15T08:07:32;6.00;;;4.70;;
47429;SDS011;33181;49.246;7.372;2023-05-15T08:09:58;5.07;;;4.20;;
47429;SDS011;33181;49.246;7.372;2023-05-15T08:12:24;4.90;;;4.40;;
47429;SDS011;33181;49.246;7.372;2023-05-15T08:14:52;7.67;;;4.97;;
47429;SDS011;33181;49.246;7.372;2023-05-15T08:17:19;5.20;;;4.70;;
47429;SDS011;33181;49.246;7.372;2023-05-15T08:19:47;6.33;;;5.00;;
47429;SDS011;33181;49.246;7.372;2023-05-15T08:25:18;4.90;;;4.40;;
47429;SDS011;33181;49.246;7.372;2023-05-15T08:27:47;5.97;;;5.20;;
47429;SDS011;33181;49.246;7.372;2023-05-15T08:30:14;11.73;;;6.53;;
47429;SDS011;33181;49.246;7.372;2023-05-15T08:32:41;5.70;;;5.00;;
47429;SDS011;33181;49.246;7.372;2023-05-15T08:35:09;5.00;;;4.50;;
47429;SDS011;33181;49.246;7.372;2023-05-15T08:37:36;5.50;;;4.10;;
47429;SDS011;33181;49.246;7.372;2023-05-15T08:40:04;7.20;;;4.30;;
47429;SDS011;33181;49.246;7.372;2023-05-15T08:42:34;8.80;;;4.70;;
47429;SDS011;33181;49.246;7.372;2023-05-15T08:45:07;6.03;;;4.80;;
47429;SDS011;33181;49.246;7.372;2023-05-15T08:47:37;5.10;;;4.60;;
47429;SDS011;33181;49.246;7.372;2023-05-15T08:52:39;5.17;;;4.47;;
47429;SDS011;33181;49.246;7.372;2023-05-15T08:55:07;6.10;;;4.27;;
47429;SDS011;33181;49.246;7.372;2023-05-15T08:57:34;6.30;;;4.60;;
47429;SDS011;33181;49.246;7.372;2023-05-15T09:00:01;5.17;;;4.67;;
47429;SDS011;33181;49.246;7.372;2023-05-15T09:02:36;5.03;;;4.53;;
47429;SDS011;33181;49.246;7.372;2023-05-15T09:05:07;6.10;;;4.40;;
47429;SDS011;33181;49.246;7.372;2023-05-15T09:07:34;11.40;;;5.83;;
47429;SDS011;33181;49.246;7.372;2023-05-15T09:10:03;5.30;;;4.47;;
47429;SDS011;33181;49.246;7.372;2023-05-15T09:12:30;10.40;;;4.30;;
47429;SDS011;33181;49.246;7.372;2023-05-15T09:15:11;8.50;;;5.10;;
47429;SDS011;33181;49.246;7.372;2023-05-15T09:17:42;8.13;;;4.83;;
47429;SDS011;33181;49.246;7.372;2023-05-15T09:20:26;7.23;;;4.63;;
47429;SDS011;33181;49.246;7.372;2023-05-15T09:22:59;9.20;;;4.20;;
47429;SDS011;33181;49.246;7.372;2023-05-15T09:31:07;5.07;;;4.30;;
47429;SDS011;33181;49.246;7.372;2023-05-15T09:33:37;4.87;;;4.37;;
47429;SDS011;33181;49.246;7.372;2023-05-15T09:36:05;5.07;;;4.57;;
47429;SDS011;33181;49.246;7.372;2023-05-15T09:38:33;6.80;;;4.67;;
47429;SDS011;33181;49.246;7.372;2023-05-15T09:41:12;5.10;;;4.60;;
47429;SDS011;33181;49.246;7.372;2023-05-15T09:43:48;5.13;;;4.63;;
47429;SDS011;33181;49.246;7.372;2023-05-15T09:46:14;4.80;;;4.37;;
47429;SDS011;33181;49.246;7.372;2023-05-15T09:48:41;5.50;;;5.00;;
47429;SDS011;33181;49.246;7.372;2023-05-15T09:51:13;5.63;;;5.07;;
47429;SDS011;33181;49.246;7.372;2023-05-15T09:53:46;5.67;;;5.10;;
47429;SDS011;33181;49.246;7.372;2023-05-15T09:56:16;5.70;;;5.03;;
47429;SDS011;33181;49.246;7.372;2023-05-15T09:58:56;6.80;;;5.70;;
47429;SDS011;33181;49.246;7.372;2023-05-15T10:01:24;7.70;;;5.20;;
47429;SDS011;33181;49.246;7.372;2023-05-15T10:04:01;7.93;;;5.80;;
47429;SDS011;33181;49.246;7.372;2023-05-15T10:06:36;6.27;;;5.67;;
47429;SDS011;33181;49.246;7.372;2023-05-15T10:09:05;8.40;;;6.30;;
47429;SDS011;33181;49.246;7.372;2023-05-15T10:11:33;8.03;;;6.20;;
47429;SDS011;33181;49.246;7.372;2023-05-15T10:14:01;6.50;;;5.77;;
47429;SDS011;33181;49.246;7.372;2023-05-15T10:16:34;8.00;;;6.00;;
47429;SDS011;33181;49.246;7.372;2023-05-15T10:19:05;6.60;;;5.90;;
47429;SDS011;33181;49.246;7.372;2023-05-15T10:21:37;6.87;;;6.20;;
47429;SDS011;33181;49.246;7.372;2023-05-15T10:24:05;7.90;;;6.00;;
47429;SDS011;33181;49.246;7.372;2023-05-15T10:29:17;7.50;;;6.27;;
47429;SDS011;33181;49.246;7.372;2023-05-15T10:31:45;6.53;;;5.83;;
47429;SDS011;33181;49.246;7.372;2023-05-15T10:34:12;5.73;;;5.00;;
47429;SDS011;33181;49.246;7.372;2023-05-15T10:36:39;6.90;;;5.27;;
47429;SDS011;33181;49.246;7.372;2023-05-15T10:39:06;5.30;;;4.80;;
47429;SDS011;33181;49.246;7.372;2023-05-15T10:41:32;5.73;;;4.93;;
47429;SDS011;33181;49.246;7.372;2023-05-15T10:44:02;9.40;;;4.90;;
47429;SDS011;33181;49.246;7.372;2023-05-15T10:46:29;5.60;;;5.10;;
47429;SDS011;33181;49.246;7.372;2023-05-15T10:48:57;5.50;;;4.87;;
47429;SDS011;33181;49.246;7.372;2023-05-15T10:51:28;5.40;;;4.90;;
47429;SDS011;33181;49.246;7.372;2023-05-15T10:53:58;5.10;;;4.27;;
47429;SDS011;33181;49.246;7.372;2023-05-15T10:56:31;5.10;;;4.30;;
47429;SDS011;33181;49.246;7.372;2023-05-15T10:59:05;5.20;;;4.70;;
47429;SDS011;33181;49.246;7.372;2023-05-15T11:01:36;4.90;;;4.40;;
47429;SDS011;33181;49.246;7.372;2023-05-15T11:04:15;5.57;;;4.37;;
47429;SDS011;33181;49.246;7.372;2023-05-15T11:06:43;6.73;;;4.90;;
47429;SDS011;33181;49.246;7.372;2023-05-15T11:14:25;5.60;;;4.83;;
47429;SDS011;33181;49.246;7.372;2023-05-15T11:19:30;5.97;;;5.13;;
47429;SDS011;33181;49.246;7.372;2023-05-15T11:21:57;8.10;;;5.37;;
47429;SDS011;33181;49.246;7.372;2023-05-15T11:24:26;8.10;;;5.70;;
47429;SDS011;33181;49.246;7.372;2023-05-15T11:27:00;5.90;;;5.30;;
47429;SDS011;33181;49.246;7.372;2023-05-15T11:29:29;6.00;;;5.40;;
47429;SDS011;33181;49.246;7.372;2023-05-15T11:31:55;7.40;;;5.50;;
47429;SDS011;33181;49.246;7.372;2023-05-15T11:34:33;7.43;;;6.03;;
47429;SDS011;33181;49.246;7.372;2023-05-15T11:37:07;7.07;;;5.70;;
47429;SDS011;33181;49.246;7.372;2023-05-15T11:39:43;7.33;;;5.70;;
47429;SDS011;33181;49.246;7.372;2023-05-15T11:42:09;6.40;;;5.63;;
47429;SDS011;33181;49.246;7.372;2023-05-15T11:44:38;6.23;;;5.60;;
47429;SDS011;33181;49.246;7.372;2023-05-15T11:47:08;7.13;;;5.77;;
47429;SDS011;33181;49.246;7.372;2023-05-15T11:49:35;9.60;;;5.93;;
47429;SDS011;33181;49.246;7.372;2023-05-15T11:52:02;6.40;;;5.77;;
47429;SDS011;33181;49.246;7.372;2023-05-15T11:54:30;9.83;;;6.50;;
47429;SDS011;33181;49.246;7.372;2023-05-15T11:56:56;7.77;;;6.10;;
47429;SDS011;33181;49.246;7.372;2023-05-15T11:59:22;8.90;;;6.33;;
47429;SDS011;33181;49.246;7.372;2023-05-15T12:01:51;6.70;;;6.03;;
47429;SDS011;33181;49.246;7.372;2023-05-15T12:04:17;6.83;;;6.13;;
47429;SDS011;33181;49.246;7.372;2023-05-15T12:06:43;8.13;;;6.43;;
47429;SDS011;33181;49.246;7.372;2023-05-15T12:09:14;8.23;;;6.13;;
47429;SDS011;33181;49.246;7.372;2023-05-15T12:11:47;8.40;;;6.43;;
47429;SDS011;33181;49.246;7.372;2023-05-15T12:14:17;6.70;;;6.00;;
47429;SDS011;33181;49.246;7.372;2023-05-15T12:16:52;7.87;;;6.50;;
47429;SDS011;33181;49.246;7.372;2023-05-15T12:19:22;8.00;;;6.83;;
47429;SDS011;33181;49.246;7.372;2023-05-15T12:21:52;8.03;;;6.70;;
47429;SDS011;33181;49.246;7.372;2023-05-15T12:24:18;7.77;;;6.83;;
47429;SDS011;33181;49.246;7.372;2023-05-15T12:26:45;8.33;;;6.40;;
47429;SDS011;33181;49.246;7.372;2023-05-15T12:29:11;7.97;;;5.87;;
47429;SDS011;33181;49.246;7.372;2023-05-15T12:31:38;9.57;;;6.63;;
47429;SDS011;33181;49.246;7.372;2023-05-15T12:34:04;7.57;;;6.73;;
47429;SDS011;33181;49.246;7.372;2023-05-15T12:36:30;7.10;;;5.90;;
47429;SDS011;33181;49.246;7.372;2023-05-15T12:38:56;7.43;;;6.50;;
47429;SDS011;33181;49.246;7.372;2023-05-15T12:41:28;7.77;;;6.70;;
47429;SDS011;33181;49.246;7.372;2023-05-15T12:43:54;8.10;;;6.97;;
47429;SDS011;33181;49.246;7.372;2023-05-15T12:46:21;7.60;;;6.80;;
47429;SDS011;33181;49.246;7.372;2023-05-15T12:48:49;7.40;;;6.70;;
47429;SDS011;33181;49.246;7.372;2023-05-15T12:51:16;7.80;;;6.70;;
47429;SDS011;33181;49.246;7.372;2023-05-15T12:53:43;7.73;;;6.93;;
47429;SDS011;33181;49.246;7.372;2023-05-15T12:56:14;7.60;;;6.90;;
47429;SDS011;33181;49.246;7.372;2023-05-15T12:58:40;8.33;;;7.37;;
47429;SDS011;33181;49.246;7.372;2023-05-15T13:01:06;8.73;;;7.20;;
47429;SDS011;33181;49.246;7.372;2023-05-15T13:03:33;10.00;;;8.00;;
47429;SDS011;33181;49.246;7.372;2023-05-15T13:06:00;9.13;;;7.63;;
47429;SDS011;33181;49.246;7.372;2023-05-15T13:08:30;8.30;;;7.10;;
47429;SDS011;33181;49.246;7.372;2023-05-15T13:10:57;7.40;;;6.60;;
47429;SDS011;33181;49.246;7.372;2023-05-15T13:13:40;8.80;;;6.87;;
47429;SDS011;33181;49.246;7.372;2023-05-15T13:16:16;7.20;;;6.50;;
47429;SDS011;33181;49.246;7.372;2023-05-15T13:18:45;8.33;;;7.40;;
47429;SDS011;33181;49.246;7.372;2023-05-15T13:21:11;9.10;;;8.20;;
47429;SDS011;33181;49.246;7.372;2023-05-15T13:23:37;9.70;;;8.57;;
47429;SDS011;33181;49.246;7.372;2023-05-15T13:26:03;10.37;;;8.17;;
47429;SDS011;33181;49.246;7.372;2023-05-15T13:28:29;10.97;;;8.10;;
47429;SDS011;33181;49.246;7.372;2023-05-15T13:30:55;9.60;;;8.57;;
47429;SDS011;33181;49.246;7.372;2023-05-15T13:33:21;11.97;;;9.20;;
47429;SDS011;33181;49.246;7.372;2023-05-15T13:35:47;11.47;;;9.10;;
47429;SDS011;33181;49.246;7.372;2023-05-15T13:38:13;9.50;;;8.50;;
47429;SDS011;33181;49.246;7.372;2023-05-15T13:40:39;11.23;;;9.10;;
47429;SDS011;33181;49.246;7.372;2023-05-15T13:43:05;10.53;;;9.03;;
47429;SDS011;33181;49.246;7.372;2023-05-15T13:45:30;9.57;;;8.27;;
47429;SDS011;33181;49.246;7.372;2023-05-15T13:47:56;9.57;;;8.30;;
47429;SDS011;33181;49.246;7.372;2023-05-15T13:50:22;12.87;;;8.40;;
47429;SDS011;33181;49.246;7.372;2023-05-15T13:52:48;9.63;;;8.50;;
47429;SDS011;33181;49.246;7.372;2023-05-15T13:55:14;9.43;;;7.67;;
47429;SDS011;33181;49.246;7.372;2023-05-15T13:57:40;8.10;;;7.20;;
47429;SDS011;33181;49.246;7.372;2023-05-15T14:00:10;10.63;;;7.37;;
47429;SDS011;33181;49.246;7.372;2023-05-15T14:02:40;8.30;;;7.03;;
47429;SDS011;33181;49.246;7.372;2023-05-15T14:05:12;9.50;;;7.30;;
47429;SDS011;33181;49.246;7.372;2023-05-15T14:07:39;11.03;;;7.37;;
47429;SDS011;33181;49.246;7.372;2023-05-15T14:10:06;8.67;;;7.30;;
47429;SDS011;33181;49.246;7.372;2023-05-15T14:12:32;9.60;;;7.20;;
47429;SDS011;33181;49.246;7.372;2023-05-15T14:14:59;8.20;;;7.30;;
47429;SDS011;33181;49.246;7.372;2023-05-15T14:17:25;8.03;;;6.70;;
47429;SDS011;33181;49.246;7.372;2023-05-15T14:19:51;9.17;;;7.70;;
47429;SDS011;33181;49.246;7.372;2023-05-15T14:22:17;10.13;;;7.67;;
47429;SDS011;33181;49.246;7.372;2023-05-15T14:24:43;9.10;;;7.87;;
47429;SDS011;33181;49.246;7.372;2023-05-15T14:27:09;9.33;;;7.63;;
47429;SDS011;33181;49.246;7.372;2023-05-15T14:29:35;8.23;;;7.37;;
47429;SDS011;33181;49.246;7.372;2023-05-15T14:32:04;10.63;;;8.30;;
47429;SDS011;33181;49.246;7.372;2023-05-15T14:34:30;9.07;;;7.50;;
47429;SDS011;33181;49.246;7.372;2023-05-15T14:36:56;10.10;;;9.00;;
47429;SDS011;33181;49.246;7.372;2023-05-15T14:39:22;9.70;;;8.63;;
47429;SDS011;33181;49.246;7.372;2023-05-15T14:41:48;9.40;;;8.20;;
47429;SDS011;33181;49.246;7.372;2023-05-15T14:44:14;10.10;;;9.00;;
47429;SDS011;33181;49.246;7.372;2023-05-15T14:46:40;9.97;;;8.13;;
47429;SDS011;33181;49.246;7.372;2023-05-15T14:49:07;10.13;;;8.83;;
47429;SDS011;33181;49.246;7.372;2023-05-15T14:51:33;10.67;;;9.57;;
47429;SDS011;33181;49.246;7.372;2023-05-15T14:53:59;11.17;;;8.93;;
47429;SDS011;33181;49.246;7.372;2023-05-15T14:56:25;11.17;;;9.90;;
47429;SDS011;33181;49.246;7.372;2023-05-15T14:58:51;11.20;;;10.00;;
47429;SDS011;33181;49.246;7.372;2023-05-15T15:01:28;9.83;;;8.80;;
47429;SDS011;33181;49.246;7.372;2023-05-15T15:03:54;10.60;;;8.97;;
47429;SDS011;33181;49.246;7.372;2023-05-15T15:06:20;11.10;;;9.60;;
47429;SDS011;33181;49.246;7.372;2023-05-15T15:08:46;11.47;;;9.70;;
47429;SDS011;33181;49.246;7.372;2023-05-15T15:11:12;10.07;;;9.03;;
47429;SDS011;33181;49.246;7.372;2023-05-15T15:13:37;11.73;;;9.20;;
47429;SDS011;33181;49.246;7.372;2023-05-15T15:16:03;9.37;;;8.37;;
47429;SDS011;33181;49.246;7.372;2023-05-15T15:18:29;10.70;;;9.27;;
47429;SDS011;33181;49.246;7.372;2023-05-15T15:20:55;9.60;;;8.60;;
47429;SDS011;33181;49.246;7.372;2023-05-15T15:23:21;9.47;;;8.47;;
47429;SDS011;33181;49.246;7.372;2023-05-15T15:25:47;9.10;;;8.07;;